Alley Springs, Missouri
Current Conditions -  °F | °C
As of 4:53 AM on Friday 31 Oct 2014 (Local Time) from KUNO Reporting Station
Clear Clear  
Wind Chill: 43°   Ceiling: Unl
Heat Index: 48°   Visibility: 10mi
Dew Point: 42°   Wind: 12mph
Humidity: 80%   Direction: 350°N
Pressure: 30.1"   Gusts: 20mph
Location:  37.1833°N, 91.4819°W
Report Text: KUNO 310953Z AUTO 35010G17KT 10SM CLR 09/06 A3010 RMK AO2 SLP190 T00890056
Loading
Personal Weather Stations






























Interactive Weather Map
Tropical Storm Tracking
New forecast layout! Learn more

10-Day Weather Forecast

Advertisements
Track Severe Weather on mobile